Airfield :
LOGIN :

Register | Disclaimer

   EN    FR    IT 

 










Legend :    VFR   Marginal VFR   IFR   Intensive IFR   Very Intensive IFR
Visi :
Ceiling :
>= 8 km
>= 3000ft
5 to 8 km
1000 to 3000 ft
1500m to 5 km
500 to 1000 ft
800 to 1500m
200 to 500 ft
< 800m
< 200 ft
Symbols :   Thunderstorms  Fog  Heavy snow  Heavy precipitations  Wind > 20 kt
SIGMETs :     Misc.  Thunderstorms  Icing  Turbulence  Mountain Waves  Volcanic Ashes







- Airport Elevation : 512 ft
- IATA code : URO
- Download approach charts


LFOP - Rouen Vallée de Seine

CURRENT METAR :
  • 191430Z AUTO 23012KT 9999 BKN043 24/13 Q1018 TEMPO 22015G25KT

EXPIRED METARs :
  • 191400Z AUTO 24013KT 210V280 9999 SCT043 23/13 Q1018 TEMPO 22015G25KT
  • 191330Z AUTO 23013KT 9999 BKN042 24/14 Q1018 TEMPO 22015G25KT
  • 191300Z AUTO 22015KT 9999 BKN040 22/14 Q1019 TEMPO 22015G25KT
  • 191230Z AUTO 23014KT 9999 BKN037 BKN043 23/14 Q1019 TEMPO 22015G25KT
  • 191200Z AUTO 21013KT 180V250 9999 BKN033 23/14 Q1018 TEMPO 22015G25KT

TAF TAF LFOP
Valid from the 19 at 12:00 until the 20 at 12:00 UTC


191100Z 1912/2012 22015KT 9999 BKN035
TEMPO 1912/1917 22015G25KT
BECMG 1917/1919 22005KT
TEMPO 2004/2007 BKN013
BECMG 2010/2012 19015KT
ATIS : +33 2 35 80 80 34
Met : +33 2 32 86 52 80
No reported NOTAMs for that airfield.



MET'MAP, your aeronautical weather chart ! - Copyright ORBIFLY December 2007 - Disclaimer

ORBIFLY MET'MAP TEAM :

Programming & Development : Alexandra Zaïnal
Concept & Development : Baudouin d'Aumeries
Co-Development & Prog : Marc-Olivier Méhu
Technical & hardware support : Manuel Goepfert

Contact : metmap@orbifly.com




SOURCES & CREDITS :

   NOAA